KCMI/CMI METAR and TAF weather

Enter ICAO airport designator
Station Type Date Time Source
KCMI METAR 2020/07/10 18:53 UTC NOAA

KCMI 101853Z 30012KT 10SM FEW044 29/18 A2991 RMK AO2 SLP123 T02940183


Station Type Date Time Source
KCMI Decoded METAR 2020/07/10 18:53 UTC NOAA

UNIV OF ILLINOIS-WILLARD, IL, United States (KCMI) 40-02N 088-16W 228M
Jul 10, 2020 - 02:53 PM EDT / 2020.07.10 1853 UTC
Wind: from the WNW (300 degrees) at 14 MPH (12 KT):0
Visibility: 10 mile(s):0
Sky conditions: mostly clear
Temperature: 84.9 F (29.4 C)
Dew Point: 64.9 F (18.3 C)
Relative Humidity: 51%
Pressure (altimeter): 29.91 in. Hg (1012 hPa)
ob: KCMI 101853Z 30012KT 10SM FEW044 29/18 A2991 RMK AO2 SLP123 T02940183
cycle: 19

Station Type Date Time Source
KCMI TAF 2020/07/10 18:24 UTC NOAA

TAF KCMI 101722Z 1018/1118 30014G22KT P6SM SCT040
FM110100 30006KT P6SM SKC
FM111600 24006KT P6SM SCT070

Example: see airport list